Time;durP1;ratioP1;P1;durP2;ratioP2;P2;SDS_P1;SDS_P2;PMS_P1;PMS_P2;Temp;Humidity;BMP_temperature;BMP_pressure;BME280_temperature;BME280_humidity;BME280_pressure;Samples;Min_cycle;Max_cycle;Signal;HPM_P1;HPM_P2
2023/03/26 00:01:57;;;;;;;5.13;1.23;;;9.10;99.90;;;;;;5064025;28;20020;-44
2023/03/26 00:04:24;;;;;;;3.30;1.20;;;9.10;99.90;;;;;;5063056;28;20464;-42
2023/03/26 00:06:50;;;;;;;5.68;1.40;;;9.20;99.90;;;;;;5064639;28;20131;-42
2023/03/26 00:09:18;;;;;;;4.45;1.30;;;9.20;99.90;;;;;;5062355;28;20700;-43
2023/03/26 00:11:47;;;;;;;5.40;1.30;;;9.20;99.90;;;;;;5063331;28;20024;-43
2023/03/26 00:14:16;;;;;;;4.93;1.70;;;9.30;99.90;;;;;;5063737;28;20055;-43
2023/03/26 00:16:42;;;;;;;4.90;2.00;;;9.20;99.90;;;;;;5063428;28;20028;-43
2023/03/26 00:19:08;;;;;;;6.57;1.45;;;9.20;99.90;;;;;;5063312;28;20020;-43
2023/03/26 00:21:34;;;;;;;4.47;1.50;;;9.30;99.90;;;;;;5063496;28;20020;-43
2023/03/26 00:24:04;;;;;;;5.75;1.27;;;9.30;99.90;;;;;;5064059;28;20028;-43
2023/03/26 00:26:32;;;;;;;7.38;1.67;;;9.30;99.90;;;;;;5063909;28;20553;-43
2023/03/26 00:28:59;;;;;;;6.38;1.70;;;9.30;99.90;;;;;;5063656;28;20021;-44
2023/03/26 00:31:25;;;;;;;6.43;1.92;;;9.40;99.90;;;;;;5063508;28;20031;-43
2023/03/26 00:33:54;;;;;;;8.32;1.77;;;9.40;99.90;;;;;;5063410;28;20059;-44
2023/03/26 00:36:21;;;;;;;10.10;2.10;;;9.40;99.90;;;;;;5062535;28;20028;-43
2023/03/26 00:38:47;;;;;;;10.98;1.92;;;9.40;99.90;;;;;;5063232;28;20475;-43
2023/03/26 00:41:35;;;;;;;10.02;2.28;;;9.40;99.90;;;;;;5063274;28;20428;-43
2023/03/26 00:44:01;;;;;;;6.85;2.10;;;9.40;99.90;;;;;;5063719;28;20358;-43
2023/03/26 00:46:30;;;;;;;6.82;1.75;;;9.40;99.90;;;;;;5061518;28;20563;-44
2023/03/26 00:48:57;;;;;;;9.07;1.85;;;9.40;99.90;;;;;;5063147;28;20020;-43
2023/03/26 00:51:23;;;;;;;9.43;2.40;;;9.40;99.90;;;;;;5061563;28;20063;-43
2023/03/26 00:53:49;;;;;;;13.23;2.30;;;9.40;99.90;;;;;;5054111;28;20163;-44
2023/03/26 00:56:16;;;;;;;7.68;2.20;;;9.40;99.90;;;;;;5062821;28;20028;-43
2023/03/26 00:58:41;;;;;;;8.65;2.42;;;9.40;99.90;;;;;;5061640;28;20479;-43
2023/03/26 01:01:12;;;;;;;10.05;2.58;;;9.40;99.90;;;;;;5061050;28;20031;-42
2023/03/26 01:03:38;;;;;;;9.25;2.58;;;9.40;99.90;;;;;;5060723;28;20115;-43
2023/03/26 01:06:14;;;;;;;9.35;2.45;;;9.40;99.90;;;;;;5061376;28;20113;-43
2023/03/26 01:08:46;;;;;;;10.15;2.55;;;9.40;99.90;;;;;;5061317;28;20032;-43
2023/03/26 01:11:19;;;;;;;15.48;3.72;;;9.30;99.90;;;;;;5062522;28;20072;-42
2023/03/26 01:13:51;;;;;;;4.85;1.98;;;9.30;99.90;;;;;;5062109;28;20020;-42
2023/03/26 01:16:27;;;;;;;10.33;3.03;;;9.30;99.90;;;;;;5062132;28;20433;-43
2023/03/26 01:18:57;;;;;;;9.20;2.50;;;9.30;99.90;;;;;;5062445;28;20062;-43
2023/03/26 01:21:28;;;;;;;6.85;2.30;;;9.30;99.90;;;;;;5061735;28;20346;-43
2023/03/26 01:23:56;;;;;;;7.82;2.65;;;9.30;99.90;;;;;;5049460;28;20507;-44
2023/03/26 01:26:56;;;;;;;11.30;2.90;;;9.30;99.90;;;;;;5060193;28;20047;-43
2023/03/26 01:29:28;;;;;;;13.95;3.70;;;9.30;99.90;;;;;;5061843;28;20024;-43
2023/03/26 01:32:21;;;;;;;13.00;3.60;;;9.40;99.90;;;;;;5061107;28;20033;-44
2023/03/26 01:35:11;;;;;;;14.13;3.53;;;9.40;99.90;;;;;;5061458;28;20106;-43
2023/03/26 01:37:57;;;;;;;13.95;3.40;;;9.40;99.90;;;;;;5062045;28;20052;-42
2023/03/26 01:40:41;;;;;;;14.27;3.13;;;9.40;99.90;;;;;;5042048;28;20025;-43
2023/03/26 01:43:33;;;;;;;10.98;2.95;;;9.40;99.90;;;;;;5058093;28;20507;-43
2023/03/26 01:46:02;;;;;;;9.57;2.53;;;9.50;99.90;;;;;;5058086;28;20068;-43
2023/03/26 01:48:32;;;;;;;8.93;2.85;;;9.50;99.90;;;;;;5060423;28;20480;-44
2023/03/26 01:50:57;;;;;;;11.23;2.72;;;9.50;99.90;;;;;;5062084;28;20025;-44
2023/03/26 01:53:23;;;;;;;15.50;3.42;;;9.50;99.90;;;;;;5061128;28;20052;-44
2023/03/26 01:56:11;;;;;;;14.23;4.22;;;9.50;99.90;;;;;;5060578;28;20062;-44
2023/03/26 01:59:21;;;;;;;13.30;3.63;;;9.50;99.90;;;;;;5061353;28;20032;-43
2023/03/26 02:02:00;;;;;;;10.40;2.95;;;9.50;99.90;;;;;;5037209;28;20040;-43
2023/03/26 02:04:51;;;;;;;11.45;2.83;;;9.60;99.90;;;;;;5057688;28;20063;-42
2023/03/26 02:07:24;;;;;;;15.13;3.70;;;9.60;99.90;;;;;;5061080;28;20036;-43
2023/03/26 02:09:56;;;;;;;9.77;3.10;;;9.60;99.90;;;;;;5061032;28;20074;-43
2023/03/26 02:12:22;;;;;;;10.07;2.55;;;9.60;99.90;;;;;;5061103;28;20140;-43
2023/03/26 02:14:49;;;;;;;15.15;3.40;;;9.50;99.90;;;;;;5061813;28;20037;-43
2023/03/26 02:17:15;;;;;;;13.98;3.60;;;9.50;99.90;;;;;;5060881;28;20484;-43
2023/03/26 02:19:41;;;;;;;13.00;2.95;;;9.50;99.90;;;;;;5060605;28;20490;-42
2023/03/26 02:22:14;;;;;;;8.55;3.10;;;9.50;99.90;;;;;;5061507;28;20033;-44
2023/03/26 02:24:41;;;;;;;12.02;3.05;;;9.50;99.90;;;;;;5061017;28;20020;-44
2023/03/26 02:27:07;;;;;;;18.33;3.88;;;9.50;99.90;;;;;;5061993;28;20364;-44
2023/03/26 02:29:36;;;;;;;9.15;2.78;;;9.50;99.90;;;;;;5060591;28;20479;-44
2023/03/26 02:32:07;;;;;;;9.77;2.70;;;9.50;99.90;;;;;;5060133;28;20380;-44
2023/03/26 02:34:33;;;;;;;11.50;3.17;;;9.50;99.90;;;;;;5062056;28;20020;-44
2023/03/26 02:36:59;;;;;;;11.77;2.90;;;9.50;99.90;;;;;;5060334;28;20476;-44
2023/03/26 02:39:25;;;;;;;8.23;2.88;;;9.50;99.90;;;;;;5060883;28;20051;-44
2023/03/26 02:41:51;;;;;;;11.10;3.00;;;9.50;99.90;;;;;;5061531;28;20028;-44
2023/03/26 02:44:17;;;;;;;12.07;3.00;;;9.60;99.90;;;;;;5059854;28;20460;-43
2023/03/26 02:46:42;;;;;;;9.88;2.72;;;9.60;99.90;;;;;;5061283;28;20130;-44
2023/03/26 02:49:14;;;;;;;8.20;3.20;;;9.60;99.90;;;;;;5060031;28;20020;-44
2023/03/26 02:51:39;;;;;;;10.65;2.92;;;9.60;99.90;;;;;;5060423;28;20037;-44
2023/03/26 02:54:05;;;;;;;11.50;2.63;;;9.60;99.90;;;;;;5060720;28;20078;-44
2023/03/26 02:56:31;;;;;;;16.67;2.67;;;9.60;99.90;;;;;;5061172;28;20595;-44
2023/03/26 02:58:57;;;;;;;8.65;2.38;;;9.60;99.90;;;;;;5060591;28;20037;-44
2023/03/26 03:01:22;;;;;;;9.60;2.72;;;9.60;99.90;;;;;;5060320;28;20111;-44
2023/03/26 03:03:48;;;;;;;13.15;3.67;;;9.60;99.90;;;;;;5061881;28;20036;-44
2023/03/26 03:06:17;;;;;;;15.50;3.75;;;9.60;99.90;;;;;;5059754;28;20020;-44
2023/03/26 03:08:44;;;;;;;15.93;4.05;;;9.60;99.90;;;;;;5061765;28;20133;-44
2023/03/26 03:11:25;;;;;;;16.88;4.13;;;9.60;99.90;;;;;;5060863;28;20107;-44
2023/03/26 03:13:51;;;;;;;11.95;3.05;;;9.60;99.90;;;;;;5060080;28;20021;-44
2023/03/26 03:16:17;;;;;;;14.23;3.67;;;9.60;99.90;;;;;;5061104;28;20057;-44
2023/03/26 03:18:43;;;;;;;15.68;4.60;;;9.60;99.90;;;;;;5061433;28;20033;-43
2023/03/26 03:21:08;;;;;;;11.60;4.07;;;9.60;99.90;;;;;;5060018;28;20021;-44
2023/03/26 03:23:34;;;;;;;14.80;4.20;;;9.60;99.90;;;;;;5061286;28;20515;-44
2023/03/26 03:26:01;;;;;;;13.65;5.00;;;9.60;99.90;;;;;;5059974;28;20055;-44
2023/03/26 03:28:30;;;;;;;14.23;4.05;;;9.60;99.90;;;;;;5061031;28;20044;-44
2023/03/26 03:30:56;;;;;;;12.45;4.30;;;9.60;99.90;;;;;;5061531;28;20052;-44
2023/03/26 03:33:22;;;;;;;11.52;3.70;;;9.60;99.90;;;;;;5059412;28;20025;-44
2023/03/26 03:35:50;;;;;;;15.80;4.35;;;9.60;99.90;;;;;;5059597;28;20024;-43
2023/03/26 03:38:16;;;;;;;12.82;4.18;;;9.60;99.90;;;;;;5048502;28;20132;-44
2023/03/26 03:40:42;;;;;;;15.77;4.03;;;9.60;99.90;;;;;;5044805;28;20020;-44
2023/03/26 03:43:08;;;;;;;9.48;3.75;;;9.60;99.90;;;;;;5059771;28;20024;-43
2023/03/26 03:45:34;;;;;;;13.55;3.95;;;9.60;99.90;;;;;;5060370;28;20027;-42
2023/03/26 03:48:00;;;;;;;15.60;4.38;;;9.60;99.90;;;;;;5059481;28;20047;-43
2023/03/26 03:50:25;;;;;;;11.55;4.60;;;9.60;99.90;;;;;;5058270;28;20017;-42
2023/03/26 03:52:54;;;;;;;12.32;4.22;;;9.60;99.90;;;;;;5060018;28;20574;-42
2023/03/26 03:55:22;;;;;;;13.65;3.90;;;9.70;99.90;;;;;;5062192;28;20036;-42
2023/03/26 03:57:48;;;;;;;12.18;5.32;;;9.70;99.90;;;;;;5062882;28;20145;-43
2023/03/26 04:00:15;;;;;;;14.75;3.72;;;9.70;99.90;;;;;;5063592;28;20863;-43
2023/03/26 04:02:41;;;;;;;11.63;4.07;;;9.70;99.90;;;;;;5063282;28;20028;-42
2023/03/26 04:05:07;;;;;;;11.10;4.10;;;9.70;99.90;;;;;;5062313;28;20075;-43
2023/03/26 04:07:33;;;;;;;15.25;3.88;;;9.70;99.90;;;;;;5063482;28;20490;-42
2023/03/26 04:10:01;;;;;;;16.20;3.83;;;9.70;99.90;;;;;;5062921;28;20033;-42
2023/03/26 04:12:27;;;;;;;16.45;3.42;;;9.70;99.90;;;;;;5062969;28;20480;-43
2023/03/26 04:14:54;;;;;;;12.65;3.38;;;9.70;99.90;;;;;;5063454;28;20111;-43
2023/03/26 04:17:23;;;;;;;11.95;4.10;;;9.70;99.90;;;;;;5062573;28;20067;-43
2023/03/26 04:19:51;;;;;;;11.77;3.15;;;9.70;99.90;;;;;;5063393;28;20032;-43
2023/03/26 04:22:21;;;;;;;10.38;3.65;;;9.70;99.90;;;;;;5063253;28;20029;-42
2023/03/26 04:24:48;;;;;;;10.40;3.15;;;9.70;99.90;;;;;;5062798;28;20032;-43
2023/03/26 04:27:17;;;;;;;10.50;3.08;;;9.70;99.90;;;;;;5061613;28;20828;-43
2023/03/26 04:29:47;;;;;;;13.75;3.58;;;9.70;99.90;;;;;;5051719;28;20796;-42
2023/03/26 04:32:28;;;;;;;12.45;3.28;;;9.70;99.90;;;;;;5063206;28;20108;-43
2023/03/26 04:34:59;;;;;;;9.98;3.40;;;9.80;99.90;;;;;;5052860;28;20063;-43
2023/03/26 04:37:26;;;;;;;6.97;2.65;;;9.70;99.90;;;;;;5062497;28;20040;-43
2023/03/26 04:39:53;;;;;;;10.70;2.60;;;9.70;99.90;;;;;;5063552;28;20075;-43
2023/03/26 04:42:19;;;;;;;11.40;2.60;;;9.70;99.90;;;;;;5062229;28;20031;-44
2023/03/26 04:44:49;;;;;;;9.90;3.10;;;9.70;99.90;;;;;;5062633;28;20032;-44
2023/03/26 04:47:18;;;;;;;10.20;2.72;;;9.70;99.90;;;;;;5062045;28;20032;-43
2023/03/26 04:49:46;;;;;;;10.10;2.78;;;9.70;99.90;;;;;;5058723;28;20029;-44
2023/03/26 04:52:12;;;;;;;9.32;2.80;;;9.70;99.90;;;;;;5042608;28;20017;-44
2023/03/26 04:54:39;;;;;;;9.52;2.83;;;9.70;99.90;;;;;;5059430;28;20052;-44
2023/03/26 04:57:15;;;;;;;7.78;2.75;;;9.70;99.90;;;;;;5062593;28;20044;-44
2023/03/26 04:59:41;;;;;;;11.07;2.53;;;9.70;99.90;;;;;;5062767;28;20024;-43
2023/03/26 05:02:08;;;;;;;11.80;2.70;;;9.70;99.90;;;;;;5042484;28;20759;-43
2023/03/26 05:04:35;;;;;;;12.45;3.05;;;9.70;99.90;;;;;;5057026;28;20038;-44
2023/03/26 05:07:01;;;;;;;7.63;2.83;;;9.70;99.90;;;;;;5062038;28;20028;-44
2023/03/26 05:09:27;;;;;;;11.73;2.88;;;9.70;99.90;;;;;;5062954;28;20032;-44
2023/03/26 05:11:53;;;;;;;11.32;2.95;;;9.70;99.90;;;;;;5061260;28;20033;-44
2023/03/26 05:14:19;;;;;;;12.13;2.90;;;9.70;99.90;;;;;;5060539;28;20896;-44
2023/03/26 05:16:46;;;;;;;11.98;2.70;;;9.70;99.90;;;;;;5062780;28;20036;-44
2023/03/26 05:19:12;;;;;;;7.85;2.45;;;9.70;99.90;;;;;;5061719;28;20025;-44
2023/03/26 05:21:38;;;;;;;10.80;2.92;;;9.70;99.90;;;;;;5062635;28;20056;-43
2023/03/26 05:24:05;;;;;;;15.07;3.00;;;9.70;99.90;;;;;;5061136;28;20032;-43
2023/03/26 05:26:31;;;;;;;9.25;3.30;;;9.70;99.90;;;;;;5061741;28;20101;-44
2023/03/26 05:28:56;;;;;;;8.30;2.80;;;9.70;99.90;;;;;;5061939;28;20029;-43
2023/03/26 05:31:22;;;;;;;9.82;3.55;;;9.70;99.90;;;;;;5061837;28;20024;-42
2023/03/26 05:33:49;;;;;;;8.02;2.70;;;9.70;99.90;;;;;;5062384;28;20041;-43
2023/03/26 05:36:16;;;;;;;17.75;2.72;;;9.70;99.90;;;;;;5062553;28;20518;-43
2023/03/26 05:38:46;;;;;;;10.65;2.88;;;9.70;99.90;;;;;;5062764;28;20032;-43
2023/03/26 05:41:12;;;;;;;14.65;3.55;;;9.70;99.90;;;;;;5061606;28;20025;-43
2023/03/26 05:43:37;;;;;;;10.18;4.07;;;9.70;99.90;;;;;;5062444;28;20140;-43
2023/03/26 05:46:03;;;;;;;15.05;3.90;;;9.70;99.90;;;;;;5061233;28;20024;-43
2023/03/26 05:48:29;;;;;;;21.38;6.22;;;9.70;99.90;;;;;;5060520;28;20079;-43
2023/03/26 05:50:56;;;;;;;18.30;5.05;;;9.60;99.90;;;;;;5061807;28;20036;-44
2023/03/26 05:53:23;;;;;;;14.02;4.68;;;9.60;99.90;;;;;;5061108;28;20048;-43
2023/03/26 05:55:56;;;;;;;18.50;5.03;;;9.60;99.90;;;;;;5060663;28;20063;-43
2023/03/26 05:58:26;;;;;;;14.77;4.32;;;9.60;99.90;;;;;;5061448;28;20117;-43
2023/03/26 06:01:01;;;;;;;16.88;3.88;;;9.60;99.90;;;;;;5061705;28;20031;-43
2023/03/26 06:03:27;;;;;;;15.80;3.72;;;9.60;99.90;;;;;;5061015;28;20121;-44
2023/03/26 06:05:52;;;;;;;15.85;4.50;;;9.50;99.90;;;;;;5062260;28;20427;-43
2023/03/26 06:08:19;;;;;;;23.20;5.30;;;9.50;99.90;;;;;;5060749;28;20028;-43
2023/03/26 06:10:49;;;;;;;18.13;5.10;;;9.50;99.90;;;;;;5061043;28;20448;-43
2023/03/26 06:13:15;;;;;;;18.75;5.68;;;9.50;99.90;;;;;;5061114;28;20020;-43
2023/03/26 06:15:41;;;;;;;11.82;4.32;;;9.50;99.90;;;;;;5059651;28;20495;-43
2023/03/26 06:18:09;;;;;;;14.10;4.57;;;9.50;99.90;;;;;;5060017;28;20040;-43
2023/03/26 06:20:38;;;;;;;15.13;4.57;;;9.50;99.90;;;;;;5061950;28;20027;-43
2023/03/26 06:23:03;;;;;;;14.35;4.05;;;9.50;99.90;;;;;;5057262;28;20199;-43
2023/03/26 06:25:29;;;;;;;12.70;3.55;;;9.50;99.90;;;;;;5062016;28;20020;-43
2023/03/26 06:27:55;;;;;;;13.30;3.13;;;9.60;99.90;;;;;;5061304;28;20047;-43
2023/03/26 06:30:20;;;;;;;12.25;3.25;;;9.60;99.90;;;;;;5060552;28;20024;-43
2023/03/26 06:32:47;;;;;;;14.77;3.92;;;9.60;99.90;;;;;;5059766;28;20399;-43
2023/03/26 06:35:12;;;;;;;17.02;3.63;;;9.60;99.90;;;;;;5041135;28;20025;-43
2023/03/26 06:37:38;;;;;;;13.15;3.55;;;9.60;99.90;;;;;;5054725;28;20117;-42
2023/03/26 06:40:04;;;;;;;17.67;3.88;;;9.60;99.90;;;;;;5058708;28;20821;-43
2023/03/26 06:42:30;;;;;;;18.25;4.80;;;9.60;99.90;;;;;;5061820;28;20021;-43
2023/03/26 06:44:55;;;;;;;19.58;4.78;;;9.60;99.90;;;;;;5060701;28;20021;-44
2023/03/26 06:47:21;;;;;;;15.43;4.30;;;9.60;99.90;;;;;;5060726;28;20028;-43
2023/03/26 06:49:46;;;;;;;17.63;4.93;;;9.60;99.90;;;;;;5061037;28;20055;-42
2023/03/26 06:52:12;;;;;;;17.67;4.15;;;9.60;99.90;;;;;;5059815;28;20040;-43
2023/03/26 06:54:37;;;;;;;19.77;4.60;;;9.60;99.90;;;;;;5060267;28;20047;-43
2023/03/26 06:57:03;;;;;;;16.13;5.20;;;9.60;99.90;;;;;;5060549;28;20040;-43
2023/03/26 06:59:29;;;;;;;12.23;4.47;;;9.60;99.90;;;;;;5061391;28;20024;-44
2023/03/26 07:01:55;;;;;;;15.60;4.25;;;9.60;99.90;;;;;;5059893;28;20135;-44
2023/03/26 07:04:20;;;;;;;15.10;4.20;;;9.70;99.90;;;;;;5060337;28;20021;-44
2023/03/26 07:06:46;;;;;;;18.30;4.90;;;9.70;99.90;;;;;;5060838;28;20115;-44
2023/03/26 07:09:11;;;;;;;18.70;4.68;;;9.70;99.90;;;;;;5061181;28;20662;-42
2023/03/26 07:11:37;;;;;;;17.58;4.60;;;9.70;99.90;;;;;;5061236;28;20824;-43
2023/03/26 07:14:02;;;;;;;21.63;4.85;;;9.70;99.90;;;;;;5060626;28;20043;-43
2023/03/26 07:16:37;;;;;;;14.55;4.47;;;9.80;99.90;;;;;;5060793;28;20128;-42
2023/03/26 07:19:03;;;;;;;12.55;4.82;;;9.80;99.90;;;;;;5058908;28;20106;-43
2023/03/26 07:21:29;;;;;;;12.10;4.22;;;9.80;99.90;;;;;;5061804;28;20020;-43
2023/03/26 07:23:55;;;;;;;12.05;3.47;;;9.80;99.90;;;;;;5060882;28;20100;-42
2023/03/26 07:26:40;;;;;;;14.95;4.32;;;9.80;99.90;;;;;;5059890;28;20525;-43
2023/03/26 07:29:16;;;;;;;14.15;4.70;;;9.80;99.90;;;;;;5061426;28;20522;-43
2023/03/26 07:32:14;;;;;;;22.10;5.68;;;9.90;99.90;;;;;;5065336;28;20049;-43
2023/03/26 07:34:57;;;;;;;16.92;5.95;;;9.80;99.90;;;;;;5052104;28;20036;-43
2023/03/26 07:37:51;;;;;;;18.58;5.65;;;9.80;99.90;;;;;;5044850;28;20491;-42
2023/03/26 07:40:50;;;;;;;16.23;5.45;;;9.80;99.90;;;;;;5062453;28;20037;-43
2023/03/26 07:43:27;;;;;;;18.23;6.00;;;9.90;99.90;;;;;;5064795;28;20466;-43
2023/03/26 07:45:54;;;;;;;21.60;5.80;;;9.80;99.90;;;;;;5060751;28;20032;-43
2023/03/26 07:48:26;;;;;;;26.58;5.57;;;9.80;99.90;;;;;;5064083;28;20056;-43
2023/03/26 07:50:52;;;;;;;17.05;5.22;;;9.80;99.90;;;;;;5064360;28;20082;-43
2023/03/26 07:53:18;;;;;;;22.80;5.32;;;9.80;99.90;;;;;;5063568;28;20135;-46
2023/03/26 07:56:06;;;;;;;11.90;3.92;;;9.80;99.90;;;;;;5063560;28;20028;-43
2023/03/26 07:59:03;;;;;;;13.15;3.72;;;9.90;99.90;;;;;;5064730;28;20029;-42
2023/03/26 08:01:49;;;;;;;13.02;3.90;;;9.90;99.90;;;;;;5055120;28;20044;-43
2023/03/26 08:04:47;;;;;;;15.57;4.13;;;9.90;99.90;;;;;;5062239;28;20119;-44
2023/03/26 08:07:44;;;;;;;17.65;4.68;;;10.00;99.90;;;;;;5055106;28;20060;-43
2023/03/26 08:10:17;;;;;;;17.75;4.68;;;10.00;99.90;;;;;;5064053;28;20067;-44
2023/03/26 08:13:20;;;;;;;15.50;4.50;;;10.10;99.90;;;;;;5063972;28;20624;-44
2023/03/26 08:16:09;;;;;;;15.68;3.97;;;10.10;99.90;;;;;;5063399;28;20029;-44
2023/03/26 08:18:54;;;;;;;14.55;3.70;;;10.10;99.90;;;;;;5063652;28;20091;-44
2023/03/26 08:21:27;;;;;;;13.40;3.45;;;10.20;99.90;;;;;;5063504;28;20024;-44
2023/03/26 08:24:21;;;;;;;14.00;4.20;;;10.30;99.90;;;;;;5043341;28;20040;-43
2023/03/26 08:26:57;;;;;;;14.00;3.67;;;10.30;99.90;;;;;;5050363;28;20036;-43
2023/03/26 08:29:50;;;;;;;11.13;3.83;;;10.30;99.90;;;;;;5063281;28;20583;-43
2023/03/26 08:32:17;;;;;;;13.13;3.78;;;10.40;99.90;;;;;;5061864;28;20408;-42
2023/03/26 08:34:43;;;;;;;13.50;4.10;;;10.40;99.90;;;;;;5061474;28;20107;-43
2023/03/26 08:37:09;;;;;;;15.57;4.30;;;10.40;99.90;;;;;;5063251;28;20124;-43
2023/03/26 08:39:37;;;;;;;12.88;3.67;;;10.40;99.90;;;;;;5064266;28;20047;-42
2023/03/26 08:42:18;;;;;;;10.57;3.30;;;10.30;99.90;;;;;;5062954;28;20634;-43
2023/03/26 08:45:04;;;;;;;15.40;4.07;;;10.30;99.90;;;;;;5051882;28;20060;-43
2023/03/26 08:47:39;;;;;;;15.88;3.80;;;10.30;99.90;;;;;;5063558;28;20571;-42
2023/03/26 08:50:31;;;;;;;13.32;3.55;;;10.30;99.90;;;;;;5062564;28;20107;-43
2023/03/26 08:53:22;;;;;;;9.17;3.30;;;10.30;99.90;;;;;;5062291;28;20047;-43
2023/03/26 08:56:06;;;;;;;10.50;3.47;;;10.30;99.90;;;;;;5063200;28;20039;-43
2023/03/26 08:58:54;;;;;;;12.15;3.95;;;10.30;99.90;;;;;;5058328;28;20066;-44
2023/03/26 09:01:48;;;;;;;14.18;4.60;;;10.20;99.90;;;;;;5052642;28;20075;-42
2023/03/26 09:04:14;;;;;;;12.52;4.57;;;10.20;99.90;;;;;;5053037;28;20044;-47
2023/03/26 09:07:10;;;;;;;12.52;4.60;;;10.10;99.90;;;;;;5061679;28;20028;-44
2023/03/26 09:09:42;;;;;;;14.57;5.10;;;10.10;99.90;;;;;;5048214;28;20089;-44
2023/03/26 09:12:39;;;;;;;11.43;4.68;;;10.10;99.90;;;;;;5049798;28;20055;-44
2023/03/26 09:15:23;;;;;;;14.10;5.05;;;10.10;99.90;;;;;;5059074;28;20080;-43
2023/03/26 09:18:17;;;;;;;13.77;4.85;;;10.10;99.90;;;;;;5052878;28;20035;-43
2023/03/26 09:20:57;;;;;;;13.98;6.30;;;10.00;99.90;;;;;;5062385;28;20032;-43
2023/03/26 09:23:44;;;;;;;9.52;4.30;;;10.00;99.90;;;;;;5062443;28;20032;-44
2023/03/26 09:26:26;;;;;;;16.98;5.72;;;9.90;99.90;;;;;;5040469;28;20484;-44
2023/03/26 09:29:07;;;;;;;17.63;6.25;;;9.90;99.90;;;;;;5060152;28;20047;-43
2023/03/26 09:32:06;;;;;;;11.25;4.97;;;9.80;99.90;;;;;;5061930;28;20062;-44
2023/03/26 09:34:56;;;;;;;11.88;5.25;;;9.80;99.90;;;;;;5053702;28;20754;-42
2023/03/26 09:37:27;;;;;;;14.82;6.32;;;9.80;99.90;;;;;;5061615;28;20132;-44
2023/03/26 09:40:13;;;;;;;13.82;5.97;;;9.80;99.90;;;;;;5060935;28;20747;-43
2023/03/26 09:42:52;;;;;;;11.90;5.75;;;9.80;99.90;;;;;;5060610;28;20586;-43
2023/03/26 09:45:51;;;;;;;12.82;5.85;;;9.70;99.90;;;;;;5052373;28;20040;-43
2023/03/26 09:48:20;;;;;;;16.88;7.57;;;9.70;99.90;;;;;;5057493;28;20041;-43
2023/03/26 09:51:06;;;;;;;15.75;8.05;;;9.80;99.90;;;;;;5059336;28;20448;-43
2023/03/26 09:54:03;;;;;;;14.55;8.18;;;9.80;99.90;;;;;;5051294;28;20056;-43
2023/03/26 09:57:09;;;;;;;17.38;7.13;;;9.80;99.90;;;;;;5057555;28;20510;-44
2023/03/26 09:59:55;;;;;;;11.85;6.15;;;9.70;99.90;;;;;;5022374;28;20057;-43
2023/03/26 10:02:29;;;;;;;15.30;5.85;;;9.70;99.90;;;;;;5017368;28;20678;-44
2023/03/26 10:05:13;;;;;;;14.77;5.80;;;9.70;99.90;;;;;;5022992;28;20029;-44
2023/03/26 10:08:03;;;;;;;9.40;5.03;;;9.80;99.90;;;;;;5046210;28;20055;-43
2023/03/26 10:10:55;;;;;;;15.05;5.50;;;9.80;99.90;;;;;;5059722;28;20709;-43
2023/03/26 10:13:42;;;;;;;12.75;4.68;;;9.90;99.90;;;;;;5059244;28;20036;-43
2023/03/26 10:16:19;;;;;;;13.23;5.57;;;9.90;99.90;;;;;;5059410;28;20792;-43
2023/03/26 10:18:47;;;;;;;10.52;4.60;;;10.00;99.90;;;;;;5060671;28;20036;-43
2023/03/26 10:21:16;;;;;;;10.80;5.75;;;10.10;99.90;;;;;;5059204;28;20039;-44
2023/03/26 10:24:00;;;;;;;11.10;4.90;;;10.20;99.90;;;;;;5060849;28;20033;-43
2023/03/26 10:26:41;;;;;;;16.95;6.18;;;10.30;99.90;;;;;;5059961;28;20100;-42
2023/03/26 10:29:26;;;;;;;16.05;6.13;;;10.40;99.90;;;;;;5058732;28;20036;-43
2023/03/26 10:32:04;;;;;;;10.05;5.53;;;10.50;99.90;;;;;;5050228;28;20040;-44
2023/03/26 10:34:39;;;;;;;13.35;5.78;;;10.50;99.90;;;;;;5060771;28;20021;-43
2023/03/26 10:37:43;;;;;;;9.82;5.45;;;10.60;99.90;;;;;;5059914;28;20111;-43
2023/03/26 10:40:31;;;;;;;9.55;5.03;;;10.60;99.90;;;;;;5059414;28;20103;-44
2023/03/26 10:43:26;;;;;;;9.65;5.18;;;10.70;99.90;;;;;;5060076;28;20063;-43
2023/03/26 10:46:08;;;;;;;12.35;4.78;;;10.70;99.90;;;;;;5058457;28;20042;-43
2023/03/26 10:49:13;;;;;;;11.93;5.07;;;10.80;99.90;;;;;;5046676;28;20036;-42
2023/03/26 10:51:45;;;;;;;9.15;4.20;;;10.80;99.90;;;;;;5057474;28;20503;-42
2023/03/26 10:54:39;;;;;;;6.35;4.05;;;10.80;99.90;;;;;;5060060;28;20565;-43
2023/03/26 10:57:20;;;;;;;11.32;5.15;;;10.90;99.90;;;;;;5058598;28;20144;-43
2023/03/26 10:59:46;;;;;;;9.48;3.42;;;10.90;99.90;;;;;;5059992;28;20033;-44
2023/03/26 11:02:28;;;;;;;8.23;3.72;;;10.90;99.90;;;;;;5057210;28;20021;-43
2023/03/26 11:05:02;;;;;;;8.45;3.28;;;10.80;99.90;;;;;;5063266;28;20029;-43
2023/03/26 11:07:43;;;;;;;10.75;3.00;;;10.70;99.90;;;;;;5064683;28;20657;-43
2023/03/26 11:10:15;;;;;;;7.97;2.90;;;10.70;99.90;;;;;;5062613;28;20805;-43
2023/03/26 11:12:54;;;;;;;6.38;2.92;;;10.60;99.90;;;;;;5065315;28;20031;-43
2023/03/26 11:15:36;;;;;;;4.78;2.20;;;10.50;99.90;;;;;;5063208;28;20433;-43
2023/03/26 11:18:31;;;;;;;8.88;2.63;;;10.50;99.90;;;;;;5060534;28;20058;-43
2023/03/26 11:21:03;;;;;;;4.68;2.78;;;10.50;99.90;;;;;;5058763;28;20027;-44
2023/03/26 11:23:51;;;;;;;6.85;3.65;;;10.40;99.90;;;;;;5064899;28;20042;-43
2023/03/26 11:26:39;;;;;;;8.07;3.85;;;10.40;99.90;;;;;;5063557;28;20115;-43
2023/03/26 11:29:19;;;;;;;6.65;4.85;;;10.30;99.90;;;;;;5064537;28;20055;-43
2023/03/26 11:32:03;;;;;;;8.10;5.60;;;10.30;99.90;;;;;;5061998;28;20034;-42
2023/03/26 11:34:57;;;;;;;7.32;5.18;;;10.20;99.90;;;;;;5059296;28;20066;-42
2023/03/26 11:37:32;;;;;;;12.40;7.15;;;10.20;99.90;;;;;;5062770;28;20522;-43
2023/03/26 11:40:00;;;;;;;11.60;7.38;;;10.20;99.90;;;;;;5060316;28;20024;-43
2023/03/26 11:42:28;;;;;;;11.23;7.88;;;10.30;99.90;;;;;;5064134;28;20086;-43
2023/03/26 11:45:22;;;;;;;14.77;7.47;;;10.30;99.90;;;;;;5061985;28;20036;-43
2023/03/26 11:47:56;;;;;;;19.83;8.80;;;10.30;99.90;;;;;;5064273;28;20476;-43
2023/03/26 11:50:29;;;;;;;17.48;8.75;;;10.30;99.90;;;;;;5064822;28;20046;-43
2023/03/26 11:53:01;;;;;;;11.40;7.35;;;10.30;99.90;;;;;;5062115;28;20703;-43
2023/03/26 11:55:27;;;;;;;;;;;10.20;99.90;;;;;;5064759;28;20029;-43
2023/03/26 11:57:58;;;;;;;12.77;7.20;;;10.10;99.90;;;;;;5062531;28;19920;-44
2023/03/26 12:00:26;;;;;;;12.90;7.20;;;10.00;99.90;;;;;;5063295;28;20028;-44
2023/03/26 12:02:56;;;;;;;15.77;8.25;;;9.90;99.90;;;;;;5063254;28;20032;-44
2023/03/26 12:05:30;;;;;;;12.75;7.93;;;9.80;99.90;;;;;;5058467;28;20399;-43
2023/03/26 12:08:16;;;;;;;17.90;7.50;;;9.70;99.90;;;;;;5063240;28;20040;-43
2023/03/26 12:10:42;;;;;;;13.65;6.60;;;9.70;99.90;;;;;;5054761;28;20021;-43
2023/03/26 12:13:20;;;;;;;13.13;6.82;;;9.60;99.90;;;;;;5051207;28;20024;-44
2023/03/26 12:15:45;;;;;;;14.45;8.65;;;9.60;99.90;;;;;;5062146;28;20028;-44
2023/03/26 12:18:39;;;;;;;15.35;7.03;;;9.60;99.90;;;;;;5058612;28;20404;-43
2023/03/26 12:21:17;;;;;;;11.63;6.07;;;9.60;99.90;;;;;;5058370;28;20473;-43
2023/03/26 12:23:53;;;;;;;14.45;6.28;;;9.50;99.90;;;;;;5063894;28;20024;-43
2023/03/26 12:26:30;;;;;;;13.40;5.43;;;9.50;99.90;;;;;;5063128;28;20183;-43
2023/03/26 12:28:56;;;;;;;14.75;6.75;;;9.50;99.90;;;;;;5062902;28;20472;-43
2023/03/26 12:31:25;;;;;;;13.25;6.07;;;9.50;99.90;;;;;;5062193;28;20066;-43
2023/03/26 12:34:15;;;;;;;18.20;6.93;;;9.50;99.90;;;;;;5063725;28;20025;-43
2023/03/26 12:36:58;;;;;;;16.63;5.57;;;9.50;99.90;;;;;;5059164;28;20178;-43
2023/03/26 12:39:43;;;;;;;15.60;4.90;;;9.50;99.90;;;;;;5056319;28;20108;-43
2023/03/26 12:42:26;;;;;;;22.73;7.35;;;9.50;99.90;;;;;;5059598;28;20024;-43
2023/03/26 12:44:57;;;;;;;16.73;4.90;;;9.50;99.90;;;;;;5057660;28;20119;-42
2023/03/26 12:47:29;;;;;;;18.83;5.30;;;9.60;99.90;;;;;;5063164;28;20035;-43
2023/03/26 12:49:55;;;;;;;13.15;4.50;;;9.60;99.90;;;;;;5061623;28;20040;-43
2023/03/26 12:52:37;;;;;;;13.98;4.93;;;9.70;99.90;;;;;;5062568;28;20027;-43
2023/03/26 12:55:21;;;;;;;11.80;4.80;;;9.70;99.90;;;;;;5060849;28;20055;-43
2023/03/26 12:58:01;;;;;;;13.00;4.93;;;9.80;99.90;;;;;;5044159;28;20048;-43
2023/03/26 13:01:02;;;;;;;13.23;4.85;;;9.90;99.90;;;;;;5054604;28;20864;-43
2023/03/26 13:04:04;;;;;;;12.02;5.35;;;10.00;99.90;;;;;;5043323;28;20032;-43
2023/03/26 13:06:39;;;;;;;16.70;4.97;;;10.10;99.90;;;;;;5059909;28;20025;-42
2023/03/26 13:09:06;;;;;;;14.30;4.78;;;10.20;99.90;;;;;;5062204;28;20033;-43
2023/03/26 13:12:11;;;;;;;12.18;4.43;;;10.10;99.90;;;;;;5061320;28;20036;-43
2023/03/26 13:15:00;;;;;;;17.83;4.82;;;10.10;99.90;;;;;;5063039;28;20036;-43
2023/03/26 13:17:34;;;;;;;11.18;4.68;;;10.00;99.90;;;;;;5052550;28;20044;-44
2023/03/26 13:20:12;;;;;;;8.63;3.72;;;9.90;99.90;;;;;;5062739;28;20117;-43
2023/03/26 13:22:55;;;;;;;12.35;4.10;;;9.90;99.90;;;;;;5053458;28;20089;-44
2023/03/26 13:25:37;;;;;;;14.05;4.53;;;9.80;99.90;;;;;;5061434;28;20044;-44